Muskoka Airport
CYQA : now visible

Aeroporto :











RITROVATECI SU...

 
LOGIN :

Iscrizione | Disclaimer

   EN    FR    IT 

 









Sommario :    VFR   VFR Marginale   IFR   IFR Intensivo   IFR Molto Intensivo
Visibilità : 
Base nubi : 
>= 8 km
>= 3000ft
5 / 8 km
1000 / 3000 ft
1500m / 5 km
500 / 1000 ft
800 / 1500m
200 / 500 ft
< 800m
< 200 ft
Simboli :   Temporali  Nebbia  Neve Forte  Precipitazioni Forti  Vento > 20 kt






- Altitudine del aeroporto : 925 ft
- Codice IATA : YQA


CYQA - Muskoka

ULTIMO METAR :
  • 101400Z AUTO 21006KT 9SM BKN041 BKN070 BKN091 25/22 A2997 RMK SLP149 DENSITY ALT 2200FT

METARs OBSOLETI :
  • 101300Z AUTO 13006KT 7SM SCT002 BKN075 BKN087 23/21 A2997 RMK SLP149 DENSITY ALT 1900FT
  • 101255Z AUTO 13005KT 6SM BR SCT002 BKN070 BKN086 22/21 A2997 RMK SLP149 DENSITY ALT 1800FT
  • 101236Z AUTO 14004KT 110V180 3SM BR OVC002 21/21 A2997 RMK SLP149 DENSITY ALT 1700FT
  • 101223Z AUTO 14004KT 1 1/2SM BR OVC002 21/21 A2997 RMK SLP148 DENSITY ALT 1700FT
  • 101200Z AUTO 14004KT 3/8SM FG VV002 20/20 A2997 RMK SLP148 DENSITY ALT 1700FT

TAF TAF CYQA
Valido dal 10 a 14 ore il 11 a 02 ore UTC


101338Z 1014/1102 23008KT P6SM BKN050
TEMPO 1014/1016 BKN020
FM101600 23010KT P6SM SCT040
TEMPO 1016/1102 BKN040
PROB30 1020/1023 2SM TSRA BR OVC040CB RMK FCST BASED ON AUTO OBS. NXT FCST BY 102000Z
FIR CZYZ / America del Nord



MetMap, La meteo Aeronautica in un colpo d'occhio ! - Copyright ORBIFLY Dicembre 2007 - Disclaimer

ORBIFLY MET'MAP TEAM :

Programmazione e sviluppo : Alexandra Zaïnal
Concezione : Baudouin d'Aumeries
Aiuto per la programmazione : Marc-Olivier Méhu
Supporto tecnico e logistico : Manuel Goepfert
Aiuto per la traduzione : Arnaldo La Scala

Contatto : metmap@orbifly.com




FONTI E CREDITI :

   NOAA       Earth
Advisory